createdAt,value
2019-04-18T00:02:41.147Z,6.40
2019-04-18T00:07:16.832Z,6.30
2019-04-18T00:09:43.090Z,6.40
2019-04-18T00:12:09.327Z,6.30
2019-04-18T00:14:48.169Z,6.40
2019-04-18T00:16:41.352Z,6.40
2019-04-18T00:18:59.434Z,6.60
2019-04-18T00:21:24.735Z,6.60
2019-04-18T00:23:49.982Z,7.40
2019-04-18T00:38:26.838Z,7.60
2019-04-18T00:40:53.276Z,7.60
2019-04-18T00:43:18.380Z,7.50
2019-04-18T00:45:44.548Z,7.40
2019-04-18T00:48:03.023Z,7.20
2019-04-18T00:50:22.767Z,7.00
2019-04-18T00:52:49.893Z,6.80
2019-04-18T00:55:14.605Z,6.70
2019-04-18T00:57:39.754Z,6.40
2019-04-18T00:59:59.167Z,6.20
2019-04-18T01:02:14.869Z,6.10
2019-04-18T01:04:34.012Z,6.10
2019-04-18T01:06:59.031Z,6.10
2019-04-18T01:09:26.666Z,6.00
2019-04-18T01:11:45.549Z,5.80
2019-04-18T01:13:57.930Z,5.80
2019-04-18T01:16:17.380Z,5.70
2019-04-18T01:18:35.987Z,5.70
2019-04-18T01:20:47.822Z,5.70
2019-04-18T01:23:06.009Z,5.60
2019-04-18T01:25:24.143Z,5.60
2019-04-18T01:27:36.502Z,5.50
2019-04-18T01:29:55.302Z,5.30
2019-04-18T01:32:09.059Z,5.20
2019-04-18T01:34:40.989Z,5.10
2019-04-18T01:36:43.251Z,5.10
2019-04-18T01:39:02.212Z,5.00
2019-04-18T01:41:24.555Z,5.00
2019-04-18T01:44:07.397Z,4.90
2019-04-18T01:46:34.088Z,4.90
2019-04-18T01:48:47.918Z,4.90
2019-04-18T01:51:06.567Z,5.00
2019-04-18T01:53:19.006Z,5.00
2019-04-18T01:55:37.920Z,5.10
2019-04-18T01:57:49.967Z,5.10
2019-04-18T02:00:10.170Z,5.20
2019-04-18T02:02:27.958Z,5.40
2019-04-18T02:05:00.877Z,5.50
2019-04-18T02:07:21.652Z,5.80
2019-04-18T02:09:39.982Z,5.80
2019-04-18T02:11:52.191Z,5.70
2019-04-18T02:14:12.252Z,5.50
2019-04-18T02:16:30.455Z,5.50
2019-04-18T02:18:55.561Z,5.40
2019-04-18T02:21:16.911Z,5.50
2019-04-18T02:23:30.398Z,5.50
2019-04-18T02:25:49.428Z,5.70
2019-04-18T02:28:01.830Z,5.70
2019-04-18T02:30:20.913Z,5.60
2019-04-18T02:32:27.678Z,5.50
2019-04-18T02:34:39.774Z,5.40
2019-04-18T02:36:58.230Z,5.40
2019-04-18T02:39:20.113Z,5.30
2019-04-18T02:41:32.274Z,5.10
2019-04-18T02:43:54.483Z,5.10
2019-04-18T02:46:13.545Z,5.10
2019-04-18T02:48:26.635Z,4.70
2019-04-18T02:50:45.002Z,4.40
2019-04-18T02:52:58.449Z,4.30
2019-04-18T02:55:22.776Z,4.10
2019-04-18T02:57:37.230Z,4.10
2019-04-18T03:00:06.952Z,4.00
2019-04-18T03:02:41.374Z,3.90
2019-04-18T03:05:00.167Z,3.80
2019-04-18T03:07:25.669Z,4.00
2019-04-18T03:09:44.206Z,4.00
2019-04-18T03:12:02.694Z,4.00
2019-04-18T03:14:21.890Z,3.90
2019-04-18T03:16:34.394Z,4.00
2019-04-18T03:18:53.764Z,3.90
2019-04-18T03:21:05.497Z,3.80
2019-04-18T03:23:24.031Z,3.80
2019-04-18T03:25:36.492Z,3.80
2019-04-18T03:27:48.882Z,3.60
2019-04-18T03:30:01.708Z,3.40
2019-04-18T03:32:13.847Z,3.30
2019-04-18T03:34:32.506Z,3.20
2019-04-18T03:37:20.420Z,3.20
2019-04-18T03:39:39.082Z,3.20
2019-04-18T03:41:51.446Z,3.20
2019-04-18T03:46:15.209Z,3.20
2019-04-18T03:48:39.698Z,2.90
2019-04-18T03:55:21.787Z,3.00
2019-04-18T04:01:52.649Z,2.90
2019-04-18T04:18:47.915Z,3.00
2019-04-18T04:21:12.582Z,3.00
2019-04-18T04:23:36.875Z,3.10
2019-04-18T04:30:11.834Z,3.40
2019-04-18T04:36:37.181Z,4.20
2019-04-18T04:41:06.432Z,4.50
2019-04-18T04:45:33.456Z,4.60
2019-04-18T04:50:05.004Z,4.90
2019-04-18T04:54:54.154Z,5.10
2019-04-18T04:57:42.079Z,5.30
2019-04-18T05:00:15.239Z,5.30
2019-04-18T05:02:41.416Z,5.50
2019-04-18T05:05:08.617Z,5.50
2019-04-18T05:07:33.286Z,5.60
2019-04-18T05:09:58.734Z,5.80
2019-04-18T05:12:17.495Z,5.90
2019-04-18T05:14:44.674Z,6.00
2019-04-18T05:17:05.291Z,6.10
2019-04-18T05:19:24.803Z,6.30
2019-04-18T05:21:50.488Z,6.40
2019-04-18T05:24:15.750Z,6.50
2019-04-18T05:26:40.490Z,6.40
2019-04-18T05:29:05.663Z,6.30
2019-04-18T05:31:08.942Z,6.30
2019-04-18T05:45:47.165Z,6.70
2019-04-18T05:48:19.546Z,6.80
2019-04-18T05:50:58.566Z,6.90
2019-04-18T05:55:54.927Z,7.40
2019-04-18T05:58:27.119Z,7.50
2019-04-18T06:01:17.557Z,7.90
2019-04-18T06:04:07.186Z,8.30
2019-04-18T06:06:50.720Z,8.50
2019-04-18T06:09:08.954Z,8.50
2019-04-18T06:11:32.620Z,8.60
2019-04-18T06:13:55.598Z,8.80
2019-04-18T06:16:25.149Z,8.90
2019-04-18T06:19:23.000Z,9.10
2019-04-18T06:21:49.610Z,9.00
2019-04-18T06:24:08.842Z,9.10
2019-04-18T06:26:55.491Z,9.30
2019-04-18T06:29:54.232Z,9.40
2019-04-18T06:32:25.398Z,9.60
2019-04-18T06:34:50.507Z,9.70
2019-04-18T06:37:02.898Z,9.80
2019-04-18T06:39:27.551Z,9.90
2019-04-18T06:46:07.026Z,10.30
2019-04-18T06:50:34.384Z,10.40
2019-04-18T06:55:03.104Z,10.40
2019-04-18T07:01:34.650Z,10.90
2019-04-18T07:20:33.736Z,14.90
2019-04-18T07:23:11.060Z,14.40
2019-04-18T07:25:35.659Z,15.60
2019-04-18T07:28:02.458Z,15.50
2019-04-18T07:30:06.091Z,14.90
2019-04-18T07:32:09.611Z,14.70
2019-04-18T07:46:46.116Z,15.70
2019-04-18T07:49:11.977Z,15.70
2019-04-18T07:51:36.936Z,16.60
2019-04-18T07:54:03.422Z,16.80
2019-04-18T07:56:27.466Z,16.50
2019-04-18T07:59:05.068Z,16.50
2019-04-18T08:01:12.986Z,16.00
2019-04-18T08:03:40.830Z,15.30
2019-04-18T08:06:03.520Z,15.70
2019-04-18T08:08:28.124Z,15.60
2019-04-18T08:10:52.687Z,15.20
2019-04-18T08:13:17.071Z,15.60
2019-04-18T08:15:19.666Z,17.90
2019-04-18T08:17:43.660Z,16.90
2019-04-18T08:24:20.178Z,16.90
2019-04-18T08:26:25.152Z,19.50
2019-04-18T08:28:49.067Z,19.90
2019-04-18T08:31:13.932Z,17.80
2019-04-18T08:33:37.655Z,17.40
2019-04-18T08:36:33.617Z,16.50
2019-04-18T08:39:17.384Z,16.20
2019-04-18T08:41:49.172Z,18.20
2019-04-18T08:44:06.266Z,17.90
2019-04-18T08:46:19.818Z,19.60
2019-04-18T08:48:45.401Z,18.30
2019-04-18T08:51:26.421Z,16.80
2019-04-18T08:58:02.382Z,18.90
2019-04-18T09:00:29.462Z,19.40
2019-04-18T09:02:57.487Z,22.50
2019-04-18T09:05:28.556Z,23.40
2019-04-18T09:07:51.288Z,23.90
2019-04-18T09:10:14.092Z,24.20
2019-04-18T09:12:38.217Z,22.80
2019-04-18T09:14:53.389Z,23.90
2019-04-18T09:17:20.057Z,20.80
2019-04-18T09:19:45.140Z,20.20
2019-04-18T09:22:11.664Z,21.70
2019-04-18T09:24:30.978Z,19.40
2019-04-18T09:26:56.911Z,18.60
2019-04-18T09:29:22.552Z,21.80
2019-04-18T09:31:47.160Z,22.60
2019-04-18T09:34:11.867Z,20.50
2019-04-18T09:36:36.582Z,20.20
2019-04-18T09:39:02.034Z,18.10
2019-04-18T09:41:32.063Z,18.10
2019-04-18T09:43:33.110Z,18.50
2019-04-18T09:45:36.479Z,19.30
2019-04-18T09:52:05.835Z,17.80
2019-04-18T09:54:30.665Z,20.70
2019-04-18T10:09:21.695Z,16.90
2019-04-18T10:11:47.374Z,16.70
2019-04-18T10:14:13.283Z,16.50
2019-04-18T10:16:39.526Z,16.30
2019-04-18T10:18:58.750Z,16.40
2019-04-18T10:21:29.242Z,16.00
2019-04-18T10:23:54.014Z,17.00
2019-04-18T10:26:46.744Z,18.00
2019-04-18T10:29:05.619Z,17.40
2019-04-18T10:31:08.678Z,18.70
2019-04-18T10:47:58.232Z,21.30
2019-04-18T11:16:49.740Z,25.20
2019-04-18T11:23:28.499Z,24.50
2019-04-18T11:27:40.318Z,23.10
2019-04-18T11:30:05.270Z,24.00
2019-04-18T11:32:29.426Z,25.50
2019-04-18T11:34:54.091Z,25.50
2019-04-18T11:43:24.200Z,25.40
2019-04-18T11:49:51.902Z,22.00
2019-04-18T11:56:19.390Z,20.30
2019-04-18T11:58:43.525Z,18.90
2019-04-18T12:05:04.343Z,17.50
2019-04-18T12:07:29.874Z,17.50
2019-04-18T12:09:54.498Z,17.30
2019-04-18T12:12:19.359Z,16.50
2019-04-18T12:16:45.734Z,19.30
2019-04-18T12:19:11.925Z,19.40
2019-04-18T12:21:36.793Z,18.30
2019-04-18T12:24:01.740Z,20.50
2019-04-18T12:26:26.575Z,21.40
2019-04-18T12:28:51.110Z,19.50
2019-04-18T12:31:09.127Z,18.50
2019-04-18T12:33:35.297Z,19.40
2019-04-18T12:36:00.467Z,18.40
2019-04-18T12:38:26.393Z,21.80
2019-04-18T12:41:05.335Z,23.40
2019-04-18T12:43:17.186Z,24.10
2019-04-18T12:45:41.447Z,24.40
2019-04-18T12:48:00.268Z,24.20
2019-04-18T12:50:28.538Z,24.50
2019-04-18T12:52:53.222Z,22.70
2019-04-18T12:55:17.943Z,23.40
2019-04-18T12:57:37.134Z,22.60
2019-04-18T12:59:55.343Z,22.60
2019-04-18T13:02:20.073Z,20.00
2019-04-18T13:04:44.971Z,21.90
2019-04-18T13:07:11.762Z,19.60
2019-04-18T13:09:43.107Z,19.10
2019-04-18T13:12:19.888Z,18.50
2019-04-18T13:23:06.484Z,18.70
2019-04-18T13:27:33.127Z,19.10
2019-04-18T13:34:01.966Z,17.30
2019-04-18T13:40:34.081Z,16.90
2019-04-18T13:45:01.174Z,17.10
2019-04-18T13:51:28.830Z,19.40
2019-04-18T13:59:58.093Z,20.00
2019-04-18T14:04:09.587Z,19.80
2019-04-18T14:06:34.158Z,19.30
2019-04-18T14:08:58.622Z,18.10
2019-04-18T14:11:23.358Z,17.40
2019-04-18T14:13:48.994Z,17.00
2019-04-18T14:16:13.666Z,16.90
2019-04-18T14:18:38.338Z,17.10
2019-04-18T14:21:02.958Z,16.90
2019-04-18T14:23:31.069Z,17.90
2019-04-18T14:25:56.296Z,18.40
2019-04-18T14:28:21.526Z,18.70
2019-04-18T14:32:47.671Z,18.50
2019-04-18T14:36:59.454Z,18.00
2019-04-18T14:39:24.200Z,17.90
2019-04-18T14:41:48.495Z,18.10
2019-04-18T14:44:07.070Z,18.30
2019-04-18T14:50:43.466Z,18.10
2019-04-18T14:52:45.990Z,18.20
2019-04-18T14:54:55.426Z,17.90
2019-04-18T14:57:20.394Z,18.00
2019-04-18T14:59:45.107Z,18.20
2019-04-18T15:08:14.594Z,17.60
2019-04-18T15:10:40.183Z,17.80
2019-04-18T15:13:04.709Z,17.90
2019-04-18T15:15:23.158Z,17.70
2019-04-18T15:17:41.050Z,17.90
2019-04-18T15:26:21.895Z,17.40
2019-04-18T15:28:50.581Z,17.20
2019-04-18T15:31:11.241Z,16.70
2019-04-18T15:33:34.962Z,16.10
2019-04-18T15:35:54.544Z,16.20
2019-04-18T15:38:06.597Z,16.10
2019-04-18T15:40:33.527Z,16.30
2019-04-18T15:42:46.273Z,16.60
2019-04-18T15:49:32.787Z,16.80
2019-04-18T15:56:00.983Z,16.60
2019-04-18T15:58:28.039Z,16.60
2019-04-18T16:00:52.219Z,16.30
2019-04-18T16:09:31.424Z,16.10
2019-04-18T16:24:11.374Z,15.80
2019-04-18T16:30:41.594Z,15.90
2019-04-18T16:35:08.186Z,15.60
2019-04-18T16:37:32.807Z,15.40
2019-04-18T16:39:58.804Z,15.20
2019-04-18T16:44:34.058Z,14.70
2019-04-18T16:53:04.875Z,13.90
2019-04-18T16:55:31.840Z,13.70
2019-04-18T16:57:56.752Z,13.70
2019-04-18T17:00:23.572Z,13.50
2019-04-18T17:07:00.990Z,13.10
2019-04-18T17:09:03.791Z,13.30
2019-04-18T17:13:31.831Z,13.10
2019-04-18T17:17:59.006Z,12.40
2019-04-18T17:24:27.313Z,12.30
2019-04-18T17:30:58.119Z,11.60
2019-04-18T17:35:37.079Z,11.10
2019-04-18T17:40:08.926Z,10.70
2019-04-18T17:46:29.265Z,10.10
2019-04-18T17:48:59.438Z,10.00
2019-04-18T17:51:34.830Z,9.90
2019-04-18T17:54:01.914Z,9.90
2019-04-18T17:56:22.525Z,9.70
2019-04-18T17:58:43.105Z,9.60
2019-04-18T18:01:08.634Z,9.50
2019-04-18T18:03:40.951Z,9.40
2019-04-18T18:06:10.125Z,9.30
2019-04-18T18:08:10.275Z,9.00
2019-04-18T18:10:30.893Z,8.90
2019-04-18T18:12:43.837Z,8.80
2019-04-18T18:15:10.252Z,8.70
2019-04-18T18:17:40.149Z,8.70
2019-04-18T18:20:07.035Z,8.50
2019-04-18T18:22:29.838Z,8.30
2019-04-18T18:24:28.001Z,8.10
2019-04-18T18:37:25.901Z,7.80
2019-04-18T18:39:24.753Z,7.80
2019-04-18T18:41:48.119Z,7.60
2019-04-18T18:44:10.207Z,7.60
2019-04-18T18:46:31.465Z,7.50
2019-04-18T18:48:56.309Z,7.60
2019-04-18T18:51:00.283Z,7.50
2019-04-18T18:53:03.587Z,7.40
2019-04-18T19:05:52.986Z,6.90
2019-04-18T19:08:21.702Z,6.90
2019-04-18T19:11:00.445Z,6.60
2019-04-18T19:13:20.981Z,6.70
2019-04-18T19:15:43.295Z,6.70
2019-04-18T19:17:40.674Z,6.60
2019-04-18T19:19:53.531Z,6.60
2019-04-18T19:22:06.845Z,6.60
2019-04-18T19:24:19.283Z,6.50
2019-04-18T19:26:31.869Z,6.40
2019-04-18T19:29:02.566Z,6.40
2019-04-18T19:31:05.639Z,6.40
2019-04-18T19:33:29.580Z,6.30
2019-04-18T19:35:58.577Z,6.30
2019-04-18T19:38:31.491Z,6.20
2019-04-18T19:44:36.814Z,6.40
2019-04-18T19:51:06.171Z,6.10
2019-04-18T19:55:34.945Z,6.00
2019-04-18T19:59:54.546Z,5.80
2019-04-18T20:02:19.216Z,5.80
2019-04-18T20:04:48.452Z,5.60
2019-04-18T20:07:23.515Z,5.70
2019-04-18T20:09:50.434Z,5.80
2019-04-18T20:12:03.897Z,5.70
2019-04-18T20:14:25.869Z,5.70
2019-04-18T20:16:50.202Z,5.60
2019-04-18T20:19:20.035Z,5.60
2019-04-18T20:21:41.800Z,5.60
2019-04-18T20:24:06.902Z,5.60
2019-04-18T20:26:37.529Z,5.50
2019-04-18T20:28:47.139Z,5.50
2019-04-18T20:31:07.240Z,5.40
2019-04-18T20:33:31.225Z,5.40
2019-04-18T20:35:58.983Z,5.30
2019-04-18T20:38:28.948Z,5.30
2019-04-18T20:41:05.326Z,5.30
2019-04-18T20:43:05.043Z,5.30
2019-04-18T20:55:43.762Z,5.00
2019-04-18T21:06:13.480Z,4.80
2019-04-18T21:08:31.082Z,4.70
2019-04-18T21:10:46.292Z,4.70
2019-04-18T21:13:11.601Z,4.70
2019-04-18T21:15:38.024Z,4.70
2019-04-18T21:18:06.403Z,4.70
2019-04-18T21:20:29.656Z,4.60
2019-04-18T21:22:54.717Z,4.70
2019-04-18T21:25:20.433Z,4.70
2019-04-18T21:27:42.762Z,4.70
2019-04-18T21:29:58.715Z,4.70
2019-04-18T21:32:24.615Z,4.60
2019-04-18T21:34:56.256Z,4.50
2019-04-18T21:37:27.644Z,4.60
2019-04-18T21:39:43.471Z,4.50
2019-04-18T21:42:07.980Z,4.50
2019-04-18T21:44:35.225Z,4.50
2019-04-18T21:51:20.843Z,4.50
2019-04-18T21:55:48.785Z,4.40
2019-04-18T22:00:23.667Z,4.30
2019-04-18T22:04:47.370Z,4.40
2019-04-18T22:09:18.702Z,4.40
2019-04-18T22:13:45.134Z,4.20
2019-04-18T22:24:21.083Z,4.30
2019-04-18T22:26:44.488Z,4.30
2019-04-18T22:29:16.649Z,4.00
2019-04-18T22:31:32.171Z,3.90
2019-04-18T22:33:39.687Z,4.00
2019-04-18T22:36:07.562Z,4.10
2019-04-18T22:40:35.754Z,4.10
2019-04-18T22:43:02.184Z,4.10
2019-04-18T22:45:30.828Z,4.00
2019-04-18T22:47:56.959Z,4.00
2019-04-18T22:50:16.062Z,4.00
2019-04-18T22:54:46.683Z,3.80
2019-04-18T22:59:17.729Z,3.60
2019-04-18T23:05:44.625Z,3.60
2019-04-18T23:10:12.761Z,3.70
2019-04-18T23:12:42.094Z,3.70
2019-04-18T23:15:05.401Z,3.70
2019-04-18T23:17:35.607Z,3.60
2019-04-18T23:19:58.261Z,3.60
2019-04-18T23:22:29.803Z,3.60
2019-04-18T23:24:47.230Z,3.60
2019-04-18T23:33:20.469Z,3.80
2019-04-18T23:42:25.110Z,3.60
2019-04-18T23:44:37.062Z,3.60
2019-04-18T23:47:01.874Z,3.60
2019-04-18T23:49:26.479Z,3.50
2019-04-18T23:53:50.729Z,3.60
